Time,TemperatureF,DewpointF,PressureIn,WindDirection,WindDirectionDegrees,WindSpeedMPH,WindSpeedGustMPH,Humidity,HourlyPrecipIn,Conditions,Clouds,dailyrainin,SolarRadiationWatts/m^2,SoftwareType,DateUTC
2013-03-26 00:00:00,38.6,30.4,29.63,North,360,2.0,2.0,72,0.00,,,0.00,0,Wunderground v.1.15,2013-03-26 04:00:00,
2013-03-26 00:10:00,38.5,30.3,29.63,North,360,1.0,2.0,72,0.00,,,0.00,0,Wunderground v.1.15,2013-03-26 04:10:00,
2013-03-26 00:20:00,38.4,30.2,29.63,NNE,17,1.0,1.0,72,0.00,,,0.00,0,Wunderground v.1.15,2013-03-26 04:20:00,
2013-03-26 00:30:00,38.2,30.0,29.64,NNE,17,0.0,0.0,72,0.00,,,0.00,0,Wunderground v.1.15,2013-03-26 04:30:00,
2013-03-26 00:40:00,37.9,30.0,29.64,NNE,17,0.0,0.0,73,0.00,,,0.00,0,Wunderground v.1.15,2013-03-26 04:40:00,
2013-03-26 00:50:00,37.7,29.8,29.64,NNE,17,0.0,0.0,73,0.00,,,0.00,0,Wunderground v.1.15,2013-03-26 04:50:00,
2013-03-26 01:01:00,37.6,29.7,29.64,North,360,0.0,0.0,73,0.00,,,0.00,0,Wunderground v.1.15,2013-03-26 05:01:00,
2013-03-26 01:10:00,37.5,29.6,29.64,North,360,0.0,0.0,73,0.00,,,0.00,0,Wunderground v.1.15,2013-03-26 05:10:00,
2013-03-26 01:20:00,37.4,29.5,29.64,North,360,0.0,0.0,73,0.00,,,0.00,0,Wunderground v.1.15,2013-03-26 05:20:00,
2013-03-26 01:30:00,37.3,29.4,29.64,North,360,0.0,0.0,73,0.00,,,0.00,0,Wunderground v.1.15,2013-03-26 05:30:00,
2013-03-26 01:40:00,37.3,29.4,29.64,NW,322,0.0,0.0,73,0.00,,,0.00,0,Wunderground v.1.15,2013-03-26 05:40:00,
2013-03-26 01:50:00,37.2,29.7,29.64,NW,317,0.0,0.0,74,0.00,,,0.00,0,Wunderground v.1.15,2013-03-26 05:50:00,
2013-03-26 02:00:00,37.0,29.5,29.64,NW,317,0.0,0.0,74,0.00,,,0.00,0,Wunderground v.1.15,2013-03-26 06:00:00,
2013-03-26 02:10:00,36.8,29.9,29.64,WNW,295,0.0,2.0,76,0.00,,,0.00,0,Wunderground v.1.15,2013-03-26 06:10:00,
2013-03-26 02:20:00,36.7,29.8,29.65,WNW,297,0.0,0.0,76,0.00,,,0.00,0,Wunderground v.1.15,2013-03-26 06:20:00,
2013-03-26 02:30:00,36.5,30.0,29.64,WNW,297,0.0,0.0,77,0.00,,,0.00,0,Wunderground v.1.15,2013-03-26 06:30:00,
2013-03-26 02:40:00,36.3,30.1,29.64,WNW,298,0.0,1.0,78,0.00,,,0.00,0,Wunderground v.1.15,2013-03-26 06:40:00,
2013-03-26 03:01:00,35.9,30.0,29.64,WNW,298,0.0,0.0,79,0.00,,,0.00,0,Wunderground v.1.15,2013-03-26 07:01:00,
2013-03-26 03:10:00,35.8,29.9,29.64,WNW,298,0.0,0.0,79,0.00,,,0.00,0,Wunderground v.1.15,2013-03-26 07:10:00,
2013-03-26 03:20:00,35.6,30.0,29.65,WNW,298,0.0,0.0,80,0.00,,,0.00,0,Wunderground v.1.15,2013-03-26 07:20:00,
2013-03-26 03:30:00,35.3,29.7,29.65,WNW,298,0.0,0.0,80,0.00,,,0.00,0,Wunderground v.1.15,2013-03-26 07:30:00,
2013-03-26 03:40:00,35.1,29.9,29.65,WNW,297,0.0,0.0,81,0.00,,,0.00,0,Wunderground v.1.15,2013-03-26 07:40:00,
2013-03-26 03:50:00,34.9,30.0,29.65,WNW,298,0.0,0.0,82,0.00,,,0.00,0,Wunderground v.1.15,2013-03-26 07:50:00,
2013-03-26 04:00:00,34.8,29.9,29.65,WNW,298,0.0,0.0,82,0.00,,,0.00,0,Wunderground v.1.15,2013-03-26 08:00:00,
2013-03-26 04:10:00,34.7,29.8,29.66,WNW,297,0.0,0.0,82,0.00,,,0.00,0,Wunderground v.1.15,2013-03-26 08:10:00,
2013-03-26 04:20:00,34.6,30.0,29.66,WNW,298,0.0,0.0,83,0.00,,,0.00,0,Wunderground v.1.15,2013-03-26 08:20:00,
2013-03-26 04:30:00,34.6,30.0,29.66,WNW,297,0.0,0.0,83,0.00,,,0.00,0,Wunderground v.1.15,2013-03-26 08:30:00,
2013-03-26 04:40:00,34.5,30.2,29.66,WNW,297,0.0,0.0,84,0.00,,,0.00,0,Wunderground v.1.15,2013-03-26 08:40:00,
2013-03-26 04:50:00,34.4,30.1,29.66,WNW,297,0.0,0.0,84,0.00,,,0.00,0,Wunderground v.1.15,2013-03-26 08:50:00,
2013-03-26 05:00:00,34.3,30.0,29.66,WNW,297,0.0,0.0,84,0.00,,,0.00,0,Wunderground v.1.15,2013-03-26 09:00:00,
2013-03-26 05:10:00,34.2,29.9,29.67,WNW,298,0.0,0.0,84,0.00,,,0.00,0,Wunderground v.1.15,2013-03-26 09:10:00,
2013-03-26 05:20:00,34.1,29.8,29.67,WNW,298,0.0,0.0,84,0.00,,,0.00,0,Wunderground v.1.15,2013-03-26 09:20:00,
2013-03-26 05:30:00,34.0,30.0,29.67,WNW,297,0.0,0.0,85,0.00,,,0.00,0,Wunderground v.1.15,2013-03-26 09:30:00,
2013-03-26 05:40:00,33.9,29.9,29.67,WNW,298,0.0,1.0,85,0.00,,,0.00,0,Wunderground v.1.15,2013-03-26 09:40:00,
2013-03-26 05:50:00,33.8,30.1,29.67,WNW,297,0.0,0.0,86,0.00,,,0.00,0,Wunderground v.1.15,2013-03-26 09:50:00,
2013-03-26 06:00:00,33.9,30.2,29.68,WNW,298,1.0,1.0,86,0.00,,,0.00,0,Wunderground v.1.15,2013-03-26 10:00:00,
2013-03-26 06:10:00,34.0,30.3,29.69,WNW,298,0.0,0.0,86,0.00,,,0.00,0,Wunderground v.1.15,2013-03-26 10:10:00,
2013-03-26 06:20:00,34.3,30.5,29.69,ENE,64,1.0,1.0,86,0.00,,,0.00,0,Wunderground v.1.15,2013-03-26 10:20:00,
2013-03-26 06:30:00,34.9,30.6,29.69,North,5,1.0,4.0,84,0.00,,,0.00,0,Wunderground v.1.15,2013-03-26 10:30:00,
2013-03-26 06:40:00,35.3,30.7,29.69,NE,46,2.0,2.0,83,0.00,,,0.00,0,Wunderground v.1.15,2013-03-26 10:40:00,
2013-03-26 06:50:00,35.6,30.6,29.70,NNE,28,2.0,2.0,82,0.00,,,0.00,0,Wunderground v.1.15,2013-03-26 10:50:00,
2013-03-26 07:01:00,35.7,30.4,29.70,ENE,71,1.0,1.0,81,0.00,,,0.00,0,Wunderground v.1.15,2013-03-26 11:01:00,
2013-03-26 07:10:00,35.7,30.4,29.71,ENE,57,1.0,1.0,81,0.00,,,0.00,5,Wunderground v.1.15,2013-03-26 11:10:00,
2013-03-26 07:20:00,35.6,30.6,29.72,ENE,57,1.0,1.0,82,0.00,,,0.00,9,Wunderground v.1.15,2013-03-26 11:20:00,
2013-03-26 07:30:00,35.6,30.6,29.72,NE,56,1.0,1.0,82,0.00,,,0.00,14,Wunderground v.1.15,2013-03-26 11:30:00,
2013-03-26 07:40:00,35.6,30.6,29.72,NE,56,0.0,1.0,82,0.00,,,0.00,19,Wunderground v.1.15,2013-03-26 11:40:00,
2013-03-26 07:50:00,35.7,30.7,29.73,NE,43,1.0,2.0,82,0.00,,,0.00,28,Wunderground v.1.15,2013-03-26 11:50:00,
2013-03-26 08:00:00,35.9,30.0,29.74,East,84,2.0,2.0,79,0.00,,,0.00,26,Wunderground v.1.15,2013-03-26 12:00:00,
2013-03-26 08:10:00,36.0,29.8,29.74,NE,49,2.0,2.0,78,0.00,,,0.00,28,Wunderground v.1.15,2013-03-26 12:10:00,
2013-03-26 08:20:00,36.1,29.6,29.74,North,5,2.0,5.0,77,0.00,,,0.00,44,Wunderground v.1.15,2013-03-26 12:20:00,
2013-03-26 08:30:00,36.2,29.4,29.75,NNE,19,2.0,3.0,76,0.00,,,0.00,54,Wunderground v.1.15,2013-03-26 12:30:00,
2013-03-26 08:40:00,36.4,29.2,29.75,NE,55,3.0,3.0,75,0.00,,,0.00,91,Wunderground v.1.15,2013-03-26 12:40:00,
2013-03-26 08:50:00,36.6,29.4,29.75,NNE,12,1.0,1.0,75,0.00,,,0.00,104,Wunderground v.1.15,2013-03-26 12:50:00,
2013-03-26 09:00:00,36.7,29.5,29.75,NNE,16,2.0,2.0,75,0.00,,,0.00,79,Wunderground v.1.15,2013-03-26 13:00:00,
2013-03-26 09:10:00,36.8,29.6,29.75,North,351,1.0,1.0,75,0.00,,,0.00,121,Wunderground v.1.15,2013-03-26 13:10:00,
2013-03-26 09:20:00,37.0,29.8,29.76,NNE,12,1.0,4.0,75,0.00,,,0.00,111,Wunderground v.1.15,2013-03-26 13:20:00,
2013-03-26 09:30:00,37.4,29.9,29.76,NNE,23,2.0,2.0,74,0.00,,,0.00,116,Wunderground v.1.15,2013-03-26 13:30:00,
2013-03-26 09:40:00,37.6,30.1,29.76,NW,306,1.0,1.0,74,0.00,,,0.00,116,Wunderground v.1.15,2013-03-26 13:40:00,
2013-03-26 09:50:00,37.7,29.8,29.76,North,350,2.0,2.0,73,0.00,,,0.00,102,Wunderground v.1.15,2013-03-26 13:50:00,
2013-03-26 10:00:00,37.8,29.6,29.76,West,274,1.0,4.0,72,0.00,,,0.00,171,Wunderground v.1.15,2013-03-26 14:00:00,
2013-03-26 10:10:00,38.2,29.6,29.76,NNW,330,2.0,2.0,71,0.00,,,0.00,230,Wunderground v.1.15,2013-03-26 14:10:00,
2013-03-26 10:20:00,38.7,30.1,29.76,NW,326,2.0,2.0,71,0.00,,,0.00,288,Wunderground v.1.15,2013-03-26 14:20:00,
2013-03-26 10:30:00,39.3,29.6,29.76,NE,38,2.0,3.0,68,0.00,,,0.00,325,Wunderground v.1.15,2013-03-26 14:30:00,
2013-03-26 10:40:00,40.2,29.7,29.77,North,9,3.0,4.0,66,0.00,,,0.00,452,Wunderground v.1.15,2013-03-26 14:40:00,
2013-03-26 10:50:00,40.9,29.7,29.77,NNE,31,3.0,3.0,64,0.00,,,0.00,367,Wunderground v.1.15,2013-03-26 14:50:00,
2013-03-26 11:00:00,41.4,28.9,29.77,East,90,3.0,3.0,61,0.00,,,0.00,381,Wunderground v.1.15,2013-03-26 15:00:00,
2013-03-26 11:10:00,42.0,29.1,29.77,ENE,63,3.0,3.0,60,0.00,,,0.00,362,Wunderground v.1.15,2013-03-26 15:10:00,
2013-03-26 11:20:00,42.7,28.5,29.77,ENE,59,3.0,3.0,57,0.00,,,0.00,360,Wunderground v.1.15,2013-03-26 15:20:00,
2013-03-26 11:30:00,42.6,28.4,29.77,NNE,19,2.0,2.0,57,0.00,,,0.00,267,Wunderground v.1.15,2013-03-26 15:30:00,
2013-03-26 11:40:00,42.7,28.1,29.77,NE,36,3.0,3.0,56,0.00,,,0.00,315,Wunderground v.1.15,2013-03-26 15:40:00,
2013-03-26 11:50:00,43.1,27.6,29.78,NNW,328,5.0,5.0,54,0.00,,,0.00,308,Wunderground v.1.15,2013-03-26 15:50:00,
2013-03-26 12:00:00,43.2,29.0,29.77,NNW,327,2.0,2.0,57,0.00,,,0.00,680,Wunderground v.1.15,2013-03-26 16:00:00,
2013-03-26 12:10:00,44.6,29.4,29.77,North,360,4.0,8.0,55,0.00,,,0.00,1027,Wunderground v.1.15,2013-03-26 16:10:00,
2013-03-26 12:20:00,44.6,28.5,29.78,North,11,4.0,5.0,53,0.00,,,0.00,230,Wunderground v.1.15,2013-03-26 16:20:00,
2013-03-26 12:30:00,44.1,28.5,29.78,NW,309,3.0,3.0,54,0.00,,,0.00,190,Wunderground v.1.15,2013-03-26 16:30:00,
2013-03-26 12:40:00,43.4,27.4,29.78,West,273,3.0,3.0,53,0.00,,,0.00,199,Wunderground v.1.15,2013-03-26 16:40:00,
2013-03-26 12:50:00,43.6,28.0,29.77,West,259,3.0,3.0,54,0.00,,,0.00,807,Wunderground v.1.15,2013-03-26 16:50:00,
2013-03-26 13:00:00,45.7,28.1,29.77,NNE,29,2.0,5.0,50,0.00,,,0.00,1002,Wunderground v.1.15,2013-03-26 17:00:00,
2013-03-26 13:10:00,46.8,26.6,29.77,North,360,4.0,4.0,45,0.00,,,0.00,302,Wunderground v.1.15,2013-03-26 17:10:00,
2013-03-26 13:20:00,46.0,26.4,29.77,WNW,282,5.0,5.0,46,0.00,,,0.00,302,Wunderground v.1.15,2013-03-26 17:20:00,
2013-03-26 13:40:00,45.0,24.4,29.77,NNE,26,3.0,6.0,44,0.00,,,0.00,318,Wunderground v.1.15,2013-03-26 17:40:00,
2013-03-26 13:50:00,45.7,25.0,29.77,NNE,24,4.0,4.0,44,0.00,,,0.00,220,Wunderground v.1.15,2013-03-26 17:50:00,
2013-03-26 14:01:00,46.9,25.0,29.77,North,349,5.0,5.0,42,0.00,,,0.00,731,Wunderground v.1.15,2013-03-26 18:01:00,
2013-03-26 14:10:00,46.4,26.2,29.77,East,101,6.0,6.0,45,0.00,,,0.00,229,Wunderground v.1.15,2013-03-26 18:10:00,
2013-03-26 14:20:00,46.5,26.3,29.77,NW,319,5.0,5.0,45,0.00,,,0.00,661,Wunderground v.1.15,2013-03-26 18:20:00,
2013-03-26 14:30:00,47.2,26.4,29.77,SE,144,5.0,5.0,44,0.00,,,0.00,610,Wunderground v.1.15,2013-03-26 18:30:00,
2013-03-26 14:40:00,47.4,26.6,29.77,SE,134,5.0,5.0,44,0.00,,,0.00,612,Wunderground v.1.15,2013-03-26 18:40:00,
2013-03-26 14:50:00,47.4,24.9,29.77,North,360,6.0,6.0,41,0.00,,,0.00,267,Wunderground v.1.15,2013-03-26 18:50:00,
2013-03-26 15:00:00,47.0,24.5,29.77,NW,321,5.0,6.0,41,0.00,,,0.00,410,Wunderground v.1.15,2013-03-26 19:00:00,
2013-03-26 15:10:00,47.0,24.5,29.77,North,9,5.0,5.0,41,0.00,,,0.00,410,Wunderground v.1.15,2013-03-26 19:10:00,
2013-03-26 15:20:00,47.0,24.5,29.77,ENE,68,5.0,5.0,41,0.00,,,0.00,185,Wunderground v.1.15,2013-03-26 19:20:00,
2013-03-26 15:30:00,46.5,23.4,29.77,ENE,75,3.0,3.0,40,0.00,,,0.00,197,Wunderground v.1.15,2013-03-26 19:30:00,
2013-03-26 15:40:00,46.5,22.8,29.77,NNE,30,3.0,3.0,39,0.00,,,0.00,121,Wunderground v.1.15,2013-03-26 19:40:00,
2013-03-26 15:50:00,46.9,22.6,29.77,ENE,76,3.0,3.0,38,0.00,,,0.00,446,Wunderground v.1.15,2013-03-26 19:50:00,
2013-03-26 16:00:00,46.7,23.0,29.77,NE,42,4.0,5.0,39,0.00,,,0.00,165,Wunderground v.1.15,2013-03-26 20:00:00,
2013-03-26 16:10:00,46.5,25.2,29.77,SE,128,4.0,4.0,43,0.00,,,0.00,88,Wunderground v.1.15,2013-03-26 20:10:00,
2013-03-26 16:20:00,46.1,25.4,29.77,South,169,2.0,2.0,44,0.00,,,0.00,91,Wunderground v.1.15,2013-03-26 20:20:00,
2013-03-26 16:30:00,45.8,22.2,29.77,North,360,2.0,2.0,39,0.00,,,0.00,248,Wunderground v.1.15,2013-03-26 20:30:00,
2013-03-26 16:40:00,45.9,23.5,29.77,NNE,13,2.0,3.0,41,0.00,,,0.00,53,Wunderground v.1.15,2013-03-26 20:40:00,
2013-03-26 16:50:00,45.6,22.6,29.78,NE,54,3.0,3.0,40,0.00,,,0.00,67,Wunderground v.1.15,2013-03-26 20:50:00,
2013-03-26 17:00:00,45.3,23.0,29.78,NNE,25,2.0,2.0,41,0.00,,,0.00,51,Wunderground v.1.15,2013-03-26 21:00:00,
2013-03-26 17:10:00,45.0,22.7,29.78,NNE,22,1.0,1.0,41,0.00,,,0.00,97,Wunderground v.1.15,2013-03-26 21:10:00,
2013-03-26 17:20:00,45.2,22.3,29.78,NE,54,2.0,3.0,40,0.00,,,0.00,53,Wunderground v.1.15,2013-03-26 21:20:00,
2013-03-26 17:30:00,45.8,22.8,29.78,NNE,30,3.0,5.0,40,0.00,,,0.00,107,Wunderground v.1.15,2013-03-26 21:30:00,
2013-03-26 17:40:00,46.3,22.0,29.78,WNW,291,2.0,3.0,38,0.00,,,0.00,74,Wunderground v.1.15,2013-03-26 21:40:00,
2013-03-26 17:50:00,46.4,21.5,29.78,NNW,340,2.0,2.0,37,0.00,,,0.00,79,Wunderground v.1.15,2013-03-26 21:50:00,
2013-03-26 18:00:00,46.5,21.6,29.78,NE,52,2.0,3.0,37,0.00,,,0.00,83,Wunderground v.1.15,2013-03-26 22:00:00,
2013-03-26 18:10:00,46.5,20.9,29.78,NNE,32,2.0,2.0,36,0.00,,,0.00,60,Wunderground v.1.15,2013-03-26 22:10:00,
2013-03-26 18:20:00,46.5,20.9,29.79,NNE,33,2.0,4.0,36,0.00,,,0.00,54,Wunderground v.1.15,2013-03-26 22:20:00,
2013-03-26 18:30:00,46.4,21.5,29.79,NE,50,2.0,2.0,37,0.00,,,0.00,35,Wunderground v.1.15,2013-03-26 22:30:00,
2013-03-26 18:40:00,46.2,22.0,29.79,East,89,2.0,2.0,38,0.00,,,0.00,21,Wunderground v.1.15,2013-03-26 22:40:00,
2013-03-26 18:50:00,45.7,23.9,29.80,ESE,116,2.0,2.0,42,0.00,,,0.00,18,Wunderground v.1.15,2013-03-26 22:50:00,
2013-03-26 19:00:00,45.2,23.4,29.80,NNE,22,1.0,1.0,42,0.00,,,0.00,14,Wunderground v.1.15,2013-03-26 23:00:00,
2013-03-26 19:10:00,44.8,23.1,29.81,NE,35,1.0,2.0,42,0.00,,,0.00,0,Wunderground v.1.15,2013-03-26 23:10:00,
2013-03-26 19:20:00,44.3,22.6,29.81,NE,39,1.0,1.0,42,0.00,,,0.00,0,Wunderground v.1.15,2013-03-26 23:20:00,
2013-03-26 19:30:00,43.5,22.5,29.81,NE,41,0.0,0.0,43,0.00,,,0.00,0,Wunderground v.1.15,2013-03-26 23:30:00,
2013-03-26 19:40:00,42.6,22.7,29.82,NE,39,0.0,0.0,45,0.00,,,0.00,0,Wunderground v.1.15,2013-03-26 23:40:00,
2013-03-26 19:50:00,41.6,22.3,29.82,NE,42,0.0,0.0,46,0.00,,,0.00,0,Wunderground v.1.15,2013-03-26 23:50:00,
2013-03-26 20:01:00,40.6,22.4,29.82,NE,40,0.0,0.0,48,0.00,,,0.00,0,Wunderground v.1.15,2013-03-27 00:01:00,
2013-03-26 20:10:00,39.8,23.1,29.82,NE,40,0.0,0.0,51,0.00,,,0.00,0,Wunderground v.1.15,2013-03-27 00:10:00,
2013-03-26 20:20:00,39.1,23.8,29.83,NE,40,0.0,0.0,54,0.00,,,0.00,0,Wunderground v.1.15,2013-03-27 00:20:00,
2013-03-26 20:30:00,38.4,23.6,29.83,NE,38,0.0,0.0,55,0.00,,,0.00,0,Wunderground v.1.15,2013-03-27 00:30:00,
2013-03-26 20:40:00,37.7,23.0,29.83,NE,40,0.0,0.0,55,0.00,,,0.00,0,Wunderground v.1.15,2013-03-27 00:40:00,
2013-03-26 20:50:00,37.0,24.0,29.83,NE,42,0.0,0.0,59,0.00,,,0.00,0,Wunderground v.1.15,2013-03-27 00:50:00,
2013-03-26 21:00:00,36.5,24.3,29.83,NNE,33,0.0,0.0,61,0.00,,,0.00,0,Wunderground v.1.15,2013-03-27 01:00:00,
2013-03-26 21:10:00,36.1,23.9,29.84,NNE,30,0.0,0.0,61,0.00,,,0.00,0,Wunderground v.1.15,2013-03-27 01:10:00,
2013-03-26 21:20:00,35.6,24.2,29.84,NNE,30,0.0,0.0,63,0.00,,,0.00,0,Wunderground v.1.15,2013-03-27 01:20:00,
2013-03-26 21:30:00,35.2,24.2,29.84,NNE,31,0.0,0.0,64,0.00,,,0.00,0,Wunderground v.1.15,2013-03-27 01:30:00,
2013-03-26 21:40:00,34.7,23.8,29.85,NNE,32,0.0,0.0,64,0.00,,,0.00,0,Wunderground v.1.15,2013-03-27 01:40:00,
2013-03-26 21:50:00,34.1,23.2,29.85,NNE,30,0.0,0.0,64,0.00,,,0.00,0,Wunderground v.1.15,2013-03-27 01:50:00,
2013-03-26 22:00:00,34.0,23.5,29.85,NNE,32,0.0,0.0,65,0.00,,,0.00,0,Wunderground v.1.15,2013-03-27 02:00:00,
2013-03-26 22:10:00,33.8,23.3,29.85,NE,34,0.0,0.0,65,0.00,,,0.00,0,Wunderground v.1.15,2013-03-27 02:10:00,
2013-03-26 22:20:00,33.3,22.8,29.86,NNE,30,0.0,0.0,65,0.00,,,0.00,0,Wunderground v.1.15,2013-03-27 02:20:00,
2013-03-26 22:30:00,32.6,23.2,29.86,NNE,32,0.0,0.0,68,0.00,,,0.00,0,Wunderground v.1.15,2013-03-27 02:30:00,
2013-03-26 22:40:00,32.3,22.2,29.86,NNE,32,0.0,0.0,66,0.00,,,0.00,0,Wunderground v.1.15,2013-03-27 02:40:00,
2013-03-26 22:50:00,32.2,22.8,29.86,NNE,31,0.0,0.0,68,0.00,,,0.00,0,Wunderground v.1.15,2013-03-27 02:50:00,
2013-03-26 23:00:00,31.7,22.3,29.86,NNE,32,0.0,0.0,68,0.00,,,0.00,0,Wunderground v.1.15,2013-03-27 03:00:00,
2013-03-26 23:10:00,31.5,22.8,29.86,NNE,31,0.0,0.0,70,0.00,,,0.00,0,Wunderground v.1.15,2013-03-27 03:10:00,
2013-03-26 23:20:00,31.3,23.0,29.87,NNE,31,0.0,0.0,71,0.00,,,0.00,0,Wunderground v.1.15,2013-03-27 03:20:00,
2013-03-26 23:30:00,31.2,22.9,29.87,NNE,32,0.0,0.0,71,0.00,,,0.00,0,Wunderground v.1.15,2013-03-27 03:30:00,
2013-03-26 23:40:00,31.0,23.0,29.87,NNE,33,0.0,0.0,72,0.00,,,0.00,0,Wunderground v.1.15,2013-03-27 03:40:00,
2013-03-26 23:50:00,30.9,22.6,29.87,West,268,1.0,1.0,71,0.00,,,0.00,0,Wunderground v.1.15,2013-03-27 03:50:00,